Time;durP1;ratioP1;P1;durP2;ratioP2;P2;SDS_P1;SDS_P2;PMS_P1;PMS_P2;Temp;Humidity;BMP_temperature;BMP_pressure;BME280_temperature;BME280_humidity;BME280_pressure;Samples;Min_cycle;Max_cycle;Signal;HPM_P1;HPM_P2
2021/07/07 00:02:05;;;;;;;;;4.00;4.00;;;;;18.66;60.47;100974.19;5004573;28;45512;-75
2021/07/07 00:04:31;;;;;;;;;4.50;2.75;;;;;18.65;60.17;100975.16;5019000;28;45385;-75
2021/07/07 00:06:56;;;;;;;;;4.50;2.75;;;;;18.63;59.52;100981.53;5018116;28;45479;-75
2021/07/07 00:09:21;;;;;;;;;4.75;1.50;;;;;18.60;59.96;100984.44;5019574;28;45374;-75
2021/07/07 00:11:47;;;;;;;;;4.00;4.00;;;;;18.57;60.34;100984.66;5018021;28;45460;-76
2021/07/07 00:14:12;;;;;;;;;4.00;4.00;;;;;18.54;60.36;100990.22;5015518;28;45400;-75
2021/07/07 00:16:37;;;;;;;;;4.00;2.75;;;;;18.49;60.14;100988.72;5013740;28;46070;-74
2021/07/07 00:19:03;;;;;;;;;3.75;3.75;;;;;18.49;60.51;100987.88;5014506;28;45488;-75
2021/07/07 00:21:29;;;;;;;;;3.25;2.75;;;;;18.48;61.26;100992.34;5013927;28;45399;-75
2021/07/07 00:23:54;;;;;;;;;3.50;3.00;;;;;18.49;60.49;100993.19;5014440;28;45416;-74
2021/07/07 00:26:20;;;;;;;;;4.50;4.00;;;;;18.48;60.79;100997.69;5014455;28;45231;-75
2021/07/07 00:28:45;;;;;;;;;5.00;4.00;;;;;18.47;61.18;100998.59;5014250;28;45453;-74
2021/07/07 00:31:10;;;;;;;;;4.00;4.00;;;;;18.46;60.75;100998.72;5013973;28;45663;-75
2021/07/07 00:33:36;;;;;;;;;5.00;3.00;;;;;18.44;61.08;101003.31;5013924;28;45416;-75
2021/07/07 00:36:01;;;;;;;;;5.00;5.00;;;;;18.40;61.21;100993.84;5011389;28;48310;-75
2021/07/07 00:38:26;;;;;;;;;6.75;4.25;;;;;18.39;61.01;100995.66;5014723;28;45617;-74
2021/07/07 00:40:52;;;;;;;;;4.00;3.50;;;;;18.39;61.33;101003.66;5014689;28;45500;-75
2021/07/07 00:43:18;;;;;;;;;4.25;4.00;;;;;18.39;61.31;101006.31;5012743;28;45298;-75
2021/07/07 00:45:43;;;;;;;;;3.75;3.75;;;;;18.40;61.54;101004.50;5013705;28;45539;-74
2021/07/07 00:48:09;;;;;;;;;4.50;3.25;;;;;18.38;61.24;101001.94;5014182;28;45481;-75
2021/07/07 00:50:35;;;;;;;;;4.00;3.25;;;;;18.35;61.37;100998.66;5013380;28;45484;-75
2021/07/07 00:53:00;;;;;;;;;2.50;2.50;;;;;18.33;61.48;101003.25;5013240;28;45841;-75
2021/07/07 00:55:25;;;;;;;;;3.00;3.00;;;;;18.30;61.49;101000.78;5014026;28;46182;-75
2021/07/07 00:57:52;;;;;;;;;4.50;3.50;;;;;18.24;61.55;101002.06;5013827;28;45830;-74
2021/07/07 01:00:22;;;;;;;;;5.50;4.00;;;;;18.20;61.96;100997.91;5014330;28;45424;-75
2021/07/07 01:02:50;;;;;;;;;6.00;5.50;;;;;18.18;62.31;100995.38;5014242;28;45508;-75
2021/07/07 01:05:16;;;;;;;;;5.00;3.50;;;;;18.17;62.07;100996.34;5012849;28;48401;-75
2021/07/07 01:07:42;;;;;;;;;3.75;2.75;;;;;18.19;62.33;101001.56;5014027;28;45514;-75
2021/07/07 01:10:10;;;;;;;;;4.50;4.00;;;;;18.21;61.80;100992.47;5013910;28;45464;-76
2021/07/07 01:12:36;;;;;;;;;10.25;5.00;;;;;18.21;62.38;100994.28;4998231;28;45474;-76
2021/07/07 01:15:04;;;;;;;;;2.25;2.25;;;;;18.24;62.45;101004.72;5013448;28;46523;-76
2021/07/07 01:17:32;;;;;;;;;3.00;3.00;;;;;18.24;62.16;101000.25;5017123;28;45805;-76
2021/07/07 01:19:59;;;;;;;;;4.75;3.00;;;;;18.25;62.20;100999.28;5016964;28;45534;-76
2021/07/07 01:22:26;;;;;;;;;6.75;3.75;;;;;18.26;61.87;101001.00;5015973;28;45582;-75
2021/07/07 01:24:52;;;;;;;;;5.50;4.00;;;;;18.24;61.91;101004.72;5016784;28;46315;-73
2021/07/07 01:27:17;;;;;;;;;2.50;2.50;;;;;18.20;62.40;101001.44;5017017;28;45350;-74
2021/07/07 01:29:42;;;;;;;;;4.75;4.75;;;;;18.15;62.31;101000.06;5016499;28;46174;-73
2021/07/07 01:32:08;;;;;;;;;5.25;4.75;;;;;18.12;62.60;101008.28;5017528;28;45501;-74
2021/07/07 01:34:33;;;;;;;;;3.75;3.00;;;;;18.08;62.93;101007.63;5014588;28;47292;-74
2021/07/07 01:36:58;;;;;;;;;5.75;3.00;;;;;18.01;62.69;101003.69;5016377;28;45563;-74
2021/07/07 01:39:24;;;;;;;;;3.25;2.50;;;;;17.96;62.60;101001.34;5016526;28;45742;-74
2021/07/07 01:41:50;;;;;;;;;5.00;3.50;;;;;17.92;63.09;100994.53;5016957;28;46088;-74
2021/07/07 01:44:15;;;;;;;;;3.00;2.00;;;;;17.87;63.20;101007.31;5016312;28;46442;-74
2021/07/07 01:46:40;;;;;;;;;4.00;3.50;;;;;17.81;63.33;101007.75;5016532;28;45531;-74
2021/07/07 01:49:06;;;;;;;;;6.75;4.00;;;;;17.77;63.36;101003.59;5015902;28;45668;-74
2021/07/07 01:51:31;;;;;;;;;5.00;3.50;;;;;17.72;63.46;100995.91;5016653;28;45495;-73
2021/07/07 01:53:56;;;;;;;;;4.75;3.00;;;;;17.70;63.68;101004.94;5016402;28;45344;-74
2021/07/07 01:56:22;;;;;;;;;3.25;3.25;;;;;17.67;63.66;100997.16;5017189;28;45426;-74
2021/07/07 01:58:47;;;;;;;;;4.25;4.25;;;;;17.68;63.91;101001.50;5017216;28;45455;-73
2021/07/07 02:01:13;;;;;;;;;5.00;4.25;;;;;17.67;63.80;101000.66;5016472;28;45442;-74
2021/07/07 02:03:38;;;;;;;;;4.50;3.50;;;;;17.65;63.97;101005.25;5016030;28;45995;-74
2021/07/07 02:06:04;;;;;;;;;5.50;3.50;;;;;17.63;64.41;101001.81;5016812;28;45404;-74
2021/07/07 02:08:29;;;;;;;;;6.00;5.00;;;;;17.63;64.43;100998.31;5016541;28;45344;-74
2021/07/07 02:10:55;;;;;;;;;3.00;3.00;;;;;17.61;64.41;101003.75;5016008;28;45341;-73
2021/07/07 02:13:21;;;;;;;;;4.00;3.00;;;;;17.60;64.66;101001.19;5014597;28;45511;-74
2021/07/07 02:15:46;;;;;;;;;4.00;3.25;;;;;17.61;64.70;101002.91;5016586;28;45336;-74
2021/07/07 02:18:12;;;;;;;;;5.50;4.25;;;;;17.65;64.16;101004.41;5015642;28;45494;-74
2021/07/07 02:20:40;;;;;;;;;3.75;3.00;;;;;17.66;64.54;101004.28;5015713;28;45345;-74
2021/07/07 02:23:08;;;;;;;;;5.50;3.00;;;;;17.67;64.83;101002.47;5016274;28;45755;-74
2021/07/07 02:25:36;;;;;;;;;5.00;4.50;;;;;17.68;64.90;101001.50;5015434;28;45404;-74
2021/07/07 02:28:03;;;;;;;;;4.50;4.50;;;;;17.67;64.43;101003.31;5031043;28;45561;-73
2021/07/07 02:30:32;;;;;;;;;2.25;2.25;;;;;17.69;64.30;100996.09;5015413;28;45538;-75
2021/07/07 02:32:58;;;;;;;;;4.50;4.50;;;;;17.70;64.15;101000.47;5015575;28;45692;-75
2021/07/07 02:35:27;;;;;;;;;3.00;3.00;;;;;17.73;64.62;101002.94;5014476;28;46241;-75
2021/07/07 02:37:54;;;;;;;;;4.75;3.00;;;;;17.74;64.57;101001.97;5016458;28;45227;-75
2021/07/07 02:40:21;;;;;;;;;3.00;3.00;;;;;17.80;64.24;101013.13;5015464;28;45407;-75
2021/07/07 02:42:47;;;;;;;;;6.00;4.00;;;;;17.79;64.68;101003.47;5009337;28;46408;-74
2021/07/07 02:45:14;;;;;;;;;8.00;5.00;;;;;17.79;64.26;101001.66;5014669;28;45472;-74
2021/07/07 02:47:41;;;;;;;;;3.00;3.00;;;;;17.76;64.56;101009.00;5016450;28;45391;-75
2021/07/07 02:50:09;;;;;;;;;3.25;2.75;;;;;17.74;64.86;101007.28;5015879;28;47003;-75
2021/07/07 02:52:37;;;;;;;;;10.00;5.75;;;;;17.69;64.78;101008.53;5015670;28;47920;-75
2021/07/07 02:55:03;;;;;;;;;4.50;3.00;;;;;17.61;64.50;101006.41;5015675;28;45382;-74
2021/07/07 02:57:28;;;;;;;;;3.00;2.00;;;;;17.52;65.08;101008.84;5015953;28;45380;-75
2021/07/07 02:59:53;;;;;;;;;4.00;3.50;;;;;17.49;65.48;101015.22;5015366;28;45491;-75
2021/07/07 03:02:19;;;;;;;;;1.75;0.00;;;;;17.43;65.40;101008.47;5015786;28;45935;-75
2021/07/07 03:04:44;;;;;;;;;6.00;4.50;;;;;17.37;65.45;101011.56;5015641;28;45640;-74
2021/07/07 03:07:09;;;;;;;;;7.25;5.00;;;;;17.34;65.88;101011.78;5014716;28;45546;-74
2021/07/07 03:09:35;;;;;;;;;3.25;2.50;;;;;17.29;65.80;101019.19;5015090;28;45546;-74
2021/07/07 03:12:00;;;;;;;;;3.00;3.00;;;;;17.26;66.25;101019.41;5015561;28;45960;-75
2021/07/07 03:14:25;;;;;;;;;5.75;5.00;;;;;17.23;65.95;101030.25;5015115;28;45237;-74
2021/07/07 03:16:51;;;;;;;;;4.00;4.00;;;;;17.16;66.37;101024.47;5016240;28;45478;-74
2021/07/07 03:19:16;;;;;;;;;5.00;4.25;;;;;17.15;66.31;101024.56;5014574;28;45711;-74
2021/07/07 03:21:42;;;;;;;;;3.00;3.00;;;;;17.13;66.82;101035.31;5015765;28;45472;-75
2021/07/07 03:24:09;;;;;;;;;5.75;4.50;;;;;17.11;66.17;101028.38;5015282;28;45388;-75
2021/07/07 03:26:34;;;;;;;;;4.00;3.25;;;;;17.09;66.52;101028.47;5015961;28;45305;-74
2021/07/07 03:29:00;;;;;;;;;5.50;3.25;;;;;17.09;67.13;101024.97;5014946;28;45458;-74
2021/07/07 03:31:25;;;;;;;;;3.00;3.00;;;;;17.10;67.18;101026.69;5014559;28;46095;-75
2021/07/07 03:33:50;;;;;;;;;4.50;4.50;;;;;17.11;67.18;101034.53;5012864;28;45395;-74
2021/07/07 03:36:18;;;;;;;;;7.75;5.00;;;;;17.11;67.38;101034.53;5014941;28;45437;-74
2021/07/07 03:38:43;;;;;;;;;3.25;3.25;;;;;17.10;67.25;101026.69;5014690;28;45814;-74
2021/07/07 03:41:08;;;;;;;;;3.75;2.75;;;;;17.11;67.53;101031.88;4996763;28;49714;-74
2021/07/07 03:43:34;;;;;;;;;4.50;4.50;;;;;17.11;67.05;101045.16;5013727;28;45334;-74
2021/07/07 03:45:59;;;;;;;;;6.00;3.00;;;;;17.07;67.52;101040.13;5014824;28;45641;-74
2021/07/07 03:48:24;;;;;;;;;3.25;3.25;;;;;17.05;67.69;101042.06;5014445;28;45535;-75
2021/07/07 03:50:50;;;;;;;;;6.25;3.75;;;;;17.02;67.66;101035.16;5014468;28;49946;-75
2021/07/07 03:53:15;;;;;;;;;6.75;4.75;;;;;16.97;68.28;101034.59;5015191;28;45576;-75
2021/07/07 03:55:41;;;;;;;;;3.50;3.00;;;;;16.93;68.25;101041.06;5014932;28;45312;-75
2021/07/07 03:58:06;;;;;;;;;4.00;4.00;;;;;16.91;67.94;101048.25;5014569;28;45571;-75
2021/07/07 04:00:32;;;;;;;;;6.50;4.00;;;;;16.90;68.37;101046.53;5014309;28;46285;-75
2021/07/07 04:02:58;;;;;;;;;5.50;4.00;;;;;16.87;68.60;101046.75;5014612;28;45579;-75
2021/07/07 04:05:25;;;;;;;;;5.50;4.00;;;;;16.85;68.77;101046.84;5013829;28;45415;-75
2021/07/07 04:07:51;;;;;;;;;8.75;5.00;;;;;16.84;68.80;101053.09;5014775;28;45492;-74
2021/07/07 04:10:18;;;;;;;;;5.25;5.25;;;;;16.85;69.05;101064.56;5014243;28;45571;-75
2021/07/07 04:12:46;;;;;;;;;5.00;5.00;;;;;16.85;69.12;101062.75;5013234;28;45449;-74
2021/07/07 04:15:13;;;;;;;;;6.25;3.75;;;;;16.86;69.21;101058.31;5013664;28;45468;-75
2021/07/07 04:17:40;;;;;;;;;4.25;4.00;;;;;16.88;69.39;101062.59;5015059;28;47229;-75
2021/07/07 04:20:07;;;;;;;;;3.50;3.50;;;;;16.90;69.41;101068.63;5014501;28;45941;-75
2021/07/07 04:22:34;;;;;;;;;4.75;4.00;;;;;16.92;69.68;101069.41;5014288;28;45813;-75
2021/07/07 04:24:59;;;;;;;;;4.50;3.00;;;;;16.95;69.65;101065.69;5013967;28;45642;-75
2021/07/07 04:27:24;;;;;;;;;6.50;4.25;;;;;16.99;69.13;101077.81;5013961;28;45451;-75
2021/07/07 04:29:50;;;;;;;;;6.00;4.75;;;;;17.02;69.34;101079.41;5013810;28;47772;-74
2021/07/07 04:32:16;;;;;;;;;5.50;4.75;;;;;17.04;68.96;101090.81;5014122;28;45546;-75
2021/07/07 04:34:45;;;;;;;;;6.25;4.75;;;;;17.08;69.49;101087.84;5013997;28;46538;-75
2021/07/07 04:37:12;;;;;;;;;4.00;4.00;;;;;17.15;69.43;101088.31;5014146;28;45555;-74
2021/07/07 04:39:39;;;;;;;;;6.50;5.50;;;;;17.20;69.37;101097.69;5013822;28;46379;-75
2021/07/07 04:42:04;;;;;;;;;4.25;4.25;;;;;17.25;69.07;101091.22;5012579;28;45865;-75
2021/07/07 04:44:29;;;;;;;;;9.25;6.50;;;;;17.31;68.83;101090.81;5012899;28;45951;-75
2021/07/07 04:46:55;;;;;;;;;5.75;4.25;;;;;17.34;68.55;101091.47;5015078;28;45541;-75
2021/07/07 04:49:20;;;;;;;;;6.00;4.00;;;;;17.39;68.74;101093.84;5013080;28;46103;-75
2021/07/07 04:51:45;;;;;;;;;7.00;5.75;;;;;17.48;68.65;101095.88;5013942;28;45444;-75
2021/07/07 04:54:11;;;;;;;;;5.25;4.25;;;;;17.56;68.46;101096.22;5013650;28;45756;-75
2021/07/07 04:56:36;;;;;;;;;6.50;4.50;;;;;17.61;68.08;101090.59;5013708;28;45316;-75
2021/07/07 04:59:01;;;;;;;;;7.25;5.00;;;;;17.64;67.70;101101.00;5013100;28;46099;-75
2021/07/07 05:01:27;;;;;;;;;5.50;5.25;;;;;17.64;67.85;101095.69;5013831;28;45624;-75
2021/07/07 05:03:52;;;;;;;;;7.50;4.25;;;;;17.65;68.30;101097.41;5013736;28;45697;-75
2021/07/07 05:06:18;;;;;;;;;7.75;3.25;;;;;17.69;67.97;101104.22;5013866;28;45352;-75
2021/07/07 05:08:43;;;;;;;;;5.00;5.00;;;;;17.71;68.25;101108.50;5012911;28;46025;-74
2021/07/07 05:11:09;;;;;;;;;7.00;6.75;;;;;17.75;67.82;101103.88;5013048;28;45400;-75
2021/07/07 05:13:36;;;;;;;;;4.00;4.00;;;;;17.86;68.03;101105.78;5012740;28;45632;-75
2021/07/07 05:16:01;;;;;;;;;6.75;4.50;;;;;18.06;68.09;101109.72;5013716;28;46151;-75
2021/07/07 05:18:27;;;;;;;;;6.75;5.00;;;;;18.25;67.17;101113.69;5013467;28;45464;-75
2021/07/07 05:20:52;;;;;;;;;7.00;5.00;;;;;18.37;67.27;101114.66;5013482;28;45468;-75
2021/07/07 05:23:17;;;;;;;;;6.25;5.00;;;;;18.47;66.75;101115.72;5012912;28;45384;-75
2021/07/07 05:25:45;;;;;;;;;4.75;4.00;;;;;18.50;66.91;101117.31;5013907;28;45364;-74
2021/07/07 05:28:11;;;;;;;;;6.00;4.25;;;;;18.47;66.91;101125.50;5013127;28;45368;-75
2021/07/07 05:30:37;;;;;;;;;6.75;6.00;;;;;18.47;66.45;101123.69;5013133;28;45718;-75
2021/07/07 05:33:03;;;;;;;;;6.50;3.75;;;;;18.47;66.76;101123.69;5011444;28;45886;-73
2021/07/07 05:35:28;;;;;;;;;6.75;4.25;;;;;18.55;66.60;101123.16;5011734;28;45415;-74
2021/07/07 05:37:54;;;;;;;;;9.25;5.00;;;;;18.65;66.42;101120.72;5009883;28;45400;-75
2021/07/07 05:40:20;;;;;;;;;5.00;4.50;;;;;18.65;66.23;101118.91;5011407;28;58090;-75
2021/07/07 05:42:52;;;;;;;;;6.00;4.75;;;;;18.66;67.14;101125.94;5012902;28;45551;-75
2021/07/07 05:45:23;;;;;;;;;7.00;6.75;;;;;18.77;67.09;101130.53;5013500;28;45333;-74
2021/07/07 05:47:49;;;;;;;;;4.50;4.00;;;;;18.85;66.33;101124.66;5012937;28;46774;-74
2021/07/07 05:50:16;;;;;;;;;5.25;5.25;;;;;18.90;65.88;101133.19;5013838;28;45356;-74
2021/07/07 05:52:42;;;;;;;;;5.25;4.00;;;;;18.89;66.28;101134.13;5013534;28;45336;-75
2021/07/07 05:55:08;;;;;;;;;8.00;5.00;;;;;18.84;65.98;101134.44;5012651;28;46607;-74
2021/07/07 05:57:39;;;;;;;;;6.25;4.00;;;;;18.90;66.73;101136.69;5009846;28;48296;-74
2021/07/07 06:00:11;;;;;;;;;5.00;5.00;;;;;19.99;67.16;101131.31;5005978;28;45613;-74
2021/07/07 06:02:38;;;;;;;;;5.75;2.75;;;;;20.75;64.20;101133.41;5014603;28;45365;-74
2021/07/07 06:05:06;;;;;;;;;4.25;4.25;;;;;21.31;63.03;101133.38;5009442;28;45484;-75
2021/07/07 06:07:32;;;;;;;;;5.00;4.00;;;;;21.61;61.52;101130.00;5014670;28;46109;-74
2021/07/07 06:09:58;;;;;;;;;5.50;4.00;;;;;21.98;60.72;101129.59;5014910;28;45792;-74
2021/07/07 06:12:23;;;;;;;;;4.00;4.00;;;;;22.57;59.57;101133.50;5016265;28;45297;-75
2021/07/07 06:14:48;;;;;;;;;4.75;3.00;;;;;22.56;59.51;101135.31;5033068;28;45423;-74
2021/07/07 06:17:13;;;;;;;;;5.00;4.00;;;;;22.46;59.27;101128.22;5016129;28;50618;-74
2021/07/07 06:19:39;;;;;;;;;5.75;4.00;;;;;22.40;58.98;101134.97;5016053;28;45375;-75
2021/07/07 06:22:04;;;;;;;;;4.25;4.00;;;;;22.53;58.38;101142.78;5016232;28;45472;-74
2021/07/07 06:24:30;;;;;;;;;6.25;4.00;;;;;22.52;58.42;101143.75;5012994;28;45774;-74
2021/07/07 06:26:55;;;;;;;;;6.50;4.50;;;;;22.43;59.00;101142.72;5003594;28;45333;-74
2021/07/07 06:29:20;;;;;;;;;4.00;3.25;;;;;22.46;58.68;101136.25;5015756;28;45416;-75
2021/07/07 06:31:46;;;;;;;;;3.75;3.75;;;;;22.43;58.71;101134.69;5016445;28;45528;-74
2021/07/07 06:34:12;;;;;;;;;7.00;4.00;;;;;22.36;58.44;101141.56;5015724;28;47825;-75
2021/07/07 06:36:38;;;;;;;;;3.50;3.50;;;;;22.30;58.38;101140.25;5015922;28;46007;-74
2021/07/07 06:39:04;;;;;;;;;6.00;3.75;;;;;22.42;58.48;101149.06;5015574;28;45739;-76
2021/07/07 06:41:29;;;;;;;;;5.00;4.00;;;;;22.54;58.30;101148.00;5020379;28;45496;-74
2021/07/07 06:43:55;;;;;;;;;9.00;4.00;;;;;22.59;58.22;101151.13;5021949;28;45345;-74
2021/07/07 06:46:20;;;;;;;;;4.25;4.00;;;;;22.63;56.84;101149.88;5020206;28;46068;-74
2021/07/07 06:48:45;;;;;;;;;4.25;3.50;;;;;22.54;57.04;101157.84;5020624;28;46342;-74
2021/07/07 06:51:11;;;;;;;;;5.00;3.75;;;;;22.42;57.47;101159.78;5021227;28;45235;-74
2021/07/07 06:53:36;;;;;;;;;7.00;6.50;;;;;22.44;56.92;101163.16;5021442;28;45327;-74
2021/07/07 06:56:01;;;;;;;;;7.25;6.25;;;;;22.50;57.19;101175.16;5021835;28;45195;-74
2021/07/07 06:58:27;;;;;;;;;6.00;4.00;;;;;22.43;56.70;101174.84;5021972;28;45432;-74
2021/07/07 07:00:52;;;;;;;;;7.00;5.00;;;;;22.43;57.50;101172.19;5020618;28;45521;-74
2021/07/07 07:03:17;;;;;;;;;5.25;4.00;;;;;22.48;57.13;101169.94;5021429;28;45465;-75
2021/07/07 07:05:43;;;;;;;;;5.25;5.00;;;;;22.38;56.60;101167.22;5020517;28;45888;-74
2021/07/07 07:08:12;;;;;;;;;6.75;6.25;;;;;22.20;57.02;101184.88;5019398;28;45417;-74
2021/07/07 07:10:38;;;;;;;;;7.25;4.50;;;;;22.14;56.49;101180.03;5022407;28;45546;-74
2021/07/07 07:13:04;;;;;;;;;5.00;5.00;;;;;22.12;57.16;101177.47;5023191;28;45446;-74
2021/07/07 07:15:29;;;;;;;;;6.75;4.00;;;;;22.07;57.71;101182.31;5020090;28;45474;-74
2021/07/07 07:17:54;;;;;;;;;5.75;5.00;;;;;22.03;57.69;101186.25;5018551;28;45395;-75
2021/07/07 07:20:20;;;;;;;;;6.75;5.75;;;;;22.09;57.19;101188.41;5016574;28;49816;-75
2021/07/07 07:22:45;;;;;;;;;6.75;5.50;;;;;22.23;58.17;101183.75;5015832;28;45359;-74
2021/07/07 07:25:11;;;;;;;;;7.25;6.00;;;;;22.64;57.58;101188.22;5014899;28;46019;-74
2021/07/07 07:27:38;;;;;;;;;6.25;5.00;;;;;22.80;56.21;101195.78;5012038;28;45537;-74
2021/07/07 07:30:05;;;;;;;;;7.25;6.25;;;;;22.92;56.46;101200.13;5014379;28;45646;-74
2021/07/07 07:32:31;;;;;;;;;6.75;4.75;;;;;23.09;56.10;101201.31;4996720;28;45615;-74
2021/07/07 07:34:56;;;;;;;;;6.00;4.75;;;;;23.19;54.93;101196.81;5015183;28;45993;-74
2021/07/07 07:37:25;;;;;;;;;8.00;8.00;;;;;23.04;55.43;101201.72;5013574;28;45769;-74
2021/07/07 07:39:53;;;;;;;;;4.00;4.00;;;;;23.25;55.48;101200.78;5011447;28;45547;-74
2021/07/07 07:42:19;;;;;;;;;4.25;4.25;;;;;23.54;55.11;101198.16;5013156;28;45505;-74
2021/07/07 07:44:46;;;;;;;;;7.00;6.00;;;;;23.61;53.86;101196.66;5009998;28;46092;-74
2021/07/07 07:47:12;;;;;;;;;5.50;4.25;;;;;23.65;53.95;101196.25;5015224;28;45921;-74
2021/07/07 07:49:38;;;;;;;;;7.25;6.25;;;;;23.83;53.77;101195.56;5009130;28;46161;-74
2021/07/07 07:52:04;;;;;;;;;6.00;6.00;;;;;23.89;53.51;101203.03;5014342;28;45500;-75
2021/07/07 07:54:30;;;;;;;;;6.50;6.50;;;;;24.03;53.27;101212.53;5010607;28;46190;-74
2021/07/07 07:56:55;;;;;;;;;6.25;5.25;;;;;23.92;53.12;101216.19;5010947;28;45590;-74
2021/07/07 07:59:21;;;;;;;;;5.25;5.00;;;;;23.88;54.11;101214.78;5014654;28;45464;-74
2021/07/07 08:01:46;;;;;;;;;8.25;5.75;;;;;23.87;52.82;101215.78;5015621;28;45400;-75
2021/07/07 08:04:12;;;;;;;;;6.75;4.50;;;;;24.55;52.75;101208.53;5012714;28;45508;-74
2021/07/07 08:06:37;;;;;;;;;5.25;4.50;;;;;25.37;52.98;101215.88;5014419;28;45656;-75
2021/07/07 08:09:03;;;;;;;;;5.00;4.00;;;;;25.74;50.75;101218.50;5013623;28;45589;-75
2021/07/07 08:11:29;;;;;;;;;5.00;5.00;;;;;26.05;50.35;101218.13;5015080;28;45418;-76
2021/07/07 08:13:54;;;;;;;;;7.25;4.00;;;;;27.12;50.12;101214.34;5014665;28;45653;-75
2021/07/07 08:16:21;;;;;;;;;9.50;6.25;;;;;27.61;47.21;101225.28;4996751;28;45275;-74
2021/07/07 08:18:47;;;;;;;;;5.50;4.00;;;;;27.28;47.89;101223.34;5012364;28;45510;-74
2021/07/07 08:21:12;;;;;;;;;7.75;6.00;;;;;26.91;47.39;101230.91;5013394;28;45325;-74
2021/07/07 08:23:37;;;;;;;;;7.25;4.25;;;;;26.36;47.91;101232.00;5013001;28;45879;-74
2021/07/07 08:26:03;;;;;;;;;7.00;5.25;;;;;26.10;48.00;101236.50;5013756;28;45586;-74
2021/07/07 08:28:28;;;;;;;;;5.00;5.00;;;;;27.04;47.05;101231.28;5014713;28;45868;-74
2021/07/07 08:30:53;;;;;;;;;4.00;4.00;;;;;27.25;46.25;101234.47;5011798;28;45702;-74
2021/07/07 08:33:19;;;;;;;;;5.75;5.75;;;;;27.23;47.21;101235.63;5013417;28;46006;-75
2021/07/07 08:35:44;;;;;;;;;2.25;1.00;;;;;26.74;44.58;101229.97;5013802;28;45463;-74
2021/07/07 08:38:10;;;;;;;;;6.25;4.00;;;;;26.89;46.96;101232.91;5012951;28;45591;-74
2021/07/07 08:40:35;;;;;;;;;6.00;5.50;;;;;27.15;46.83;101233.75;5014500;28;45488;-74
2021/07/07 08:43:02;;;;;;;;;6.50;3.75;;;;;28.20;46.33;101240.44;5013841;28;45866;-74
2021/07/07 08:45:27;;;;;;;;;5.75;3.50;;;;;30.78;43.47;101241.44;5013725;28;45581;-74
2021/07/07 08:47:53;;;;;;;;;5.75;4.75;;;;;30.17;41.59;101244.19;5013368;28;45565;-74
2021/07/07 08:50:27;;;;;;;;;5.75;5.25;;;;;29.11;41.61;101250.16;5014441;28;45284;-74
2021/07/07 08:52:54;;;;;;;;;5.00;3.75;;;;;28.09;42.80;101248.91;5013927;28;45364;-74
2021/07/07 08:55:21;;;;;;;;;5.75;5.75;;;;;29.50;42.53;101246.63;5012352;28;45831;-74
2021/07/07 08:57:47;;;;;;;;;4.50;4.50;;;;;29.86;41.42;101249.63;5012900;28;45545;-74
2021/07/07 09:00:19;;;;;;;;;4.00;4.00;;;;;28.79;41.56;101253.78;5013433;28;45393;-74
2021/07/07 09:02:47;;;;;;;;;6.75;6.75;;;;;27.66;43.29;101255.34;5013478;28;46064;-74
2021/07/07 09:05:12;;;;;;;;;4.00;3.75;;;;;27.35;45.26;101249.69;5013857;28;45635;-74
2021/07/07 09:07:38;;;;;;;;;8.00;5.25;;;;;28.16;44.45;101252.59;5013062;28;45455;-74
2021/07/07 09:10:04;;;;;;;;;5.50;5.50;;;;;28.45;43.01;101251.25;5013540;28;45711;-74
2021/07/07 09:12:29;;;;;;;;;7.25;5.25;;;;;28.13;43.01;101258.31;5011591;28;46878;-74
2021/07/07 09:15:08;;;;;;;;;5.25;4.00;;;;;28.55;42.78;101255.47;5012918;28;45452;-74
2021/07/07 09:17:50;;;;;;;;;6.50;6.25;;;;;29.00;42.37;101255.94;5010833;28;45356;-75
2021/07/07 09:20:28;;;;;;;;;7.50;5.00;;;;;31.26;41.69;101259.06;5010706;28;45425;-75
2021/07/07 09:23:16;;;;;;;;;6.50;6.50;;;;;35.57;38.53;101252.03;5011866;28;45708;-74
2021/07/07 09:25:56;;;;;;;;;6.00;4.75;;;;;38.14;33.72;101269.69;5013466;28;45614;-74
2021/07/07 09:28:35;;;;;;;;;6.00;4.00;;;;;39.57;30.37;101265.56;5013145;28;45680;-74
2021/07/07 09:31:07;;;;;;;;;4.00;4.00;;;;;38.63;31.81;101276.72;5008924;28;45365;-74
2021/07/07 09:33:39;;;;;;;;;6.50;4.75;;;;;36.99;30.85;101265.06;5012666;28;46322;-75
2021/07/07 09:36:23;;;;;;;;;7.00;6.00;;;;;35.92;32.52;101277.94;5009706;28;45780;-74
2021/07/07 09:38:49;;;;;;;;;6.00;5.50;;;;;35.34;32.74;101277.13;5012640;28;45519;-75
2021/07/07 09:41:16;;;;;;;;;4.25;4.00;;;;;34.91;32.72;101273.00;5012852;28;45467;-74
2021/07/07 09:43:49;;;;;;;;;4.00;3.00;;;;;35.34;33.49;101272.50;5015924;28;46823;-74
2021/07/07 09:46:16;;;;;;;;;5.00;4.75;;;;;35.39;31.73;101278.16;5013909;28;45862;-74
2021/07/07 09:48:42;;;;;;;;;5.50;4.50;;;;;34.87;32.86;101269.03;5015716;28;45513;-75
2021/07/07 09:51:07;;;;;;;;;5.75;4.00;;;;;34.92;33.19;101265.66;5015808;28;45585;-75
2021/07/07 09:53:33;;;;;;;;;6.00;4.25;;;;;35.13;32.67;101267.31;5016098;28;46518;-73
2021/07/07 09:55:58;;;;;;;;;4.00;3.75;;;;;35.04;32.12;101266.72;5016846;28;45838;-73
2021/07/07 09:58:23;;;;;;;;;5.25;3.75;;;;;34.29;33.12;101277.00;5016353;28;45526;-74
2021/07/07 10:00:49;;;;;;;;;4.50;3.25;;;;;33.82;33.19;101275.22;5014738;28;45562;-74
2021/07/07 10:03:15;;;;;;;;;4.75;4.00;;;;;33.06;34.37;101270.72;5016262;28;45825;-74
2021/07/07 10:05:41;;;;;;;;;5.00;4.00;;;;;32.38;34.05;101278.56;5014488;28;45664;-75
2021/07/07 10:08:08;;;;;;;;;6.00;5.75;;;;;31.69;34.64;101275.50;5015203;28;45579;-74
2021/07/07 10:10:35;;;;;;;;;6.50;5.25;;;;;31.35;35.56;101268.81;5014486;28;45654;-74
2021/07/07 10:13:01;;;;;;;;;4.75;3.50;;;;;31.64;35.49;101275.25;5016659;28;45424;-74
2021/07/07 10:15:27;;;;;;;;;8.75;6.00;;;;;31.68;35.35;101279.22;5014702;28;45712;-75
2021/07/07 10:17:53;;;;;;;;;4.50;4.50;;;;;31.41;35.72;101284.34;5023215;28;45568;-78
2021/07/07 10:20:19;;;;;;;;;4.75;4.75;;;;;30.93;35.86;101275.72;5012302;28;45429;-74
2021/07/07 10:22:44;;;;;;;;;4.75;4.75;;;;;30.73;36.34;101277.28;5012481;28;46321;-74
2021/07/07 10:25:21;;;;;;;;;8.00;6.50;;;;;30.41;37.25;101287.38;5011794;28;45416;-74
2021/07/07 10:27:48;;;;;;;;;6.25;5.50;;;;;29.92;37.17;101286.03;5010677;28;45485;-74
2021/07/07 10:30:14;;;;;;;;;6.75;6.00;;;;;29.32;38.04;101290.19;5004106;28;45435;-74
2021/07/07 10:32:40;;;;;;;;;6.00;5.25;;;;;28.99;38.59;101278.63;5001343;28;46251;-74
2021/07/07 10:35:07;;;;;;;;;6.50;5.50;;;;;28.69;39.05;101272.88;5013481;28;45493;-75
2021/07/07 10:37:34;;;;;;;;;6.00;6.00;;;;;28.91;39.54;101271.31;5011272;28;45528;-75
2021/07/07 10:40:22;;;;;;;;;8.75;6.00;;;;;29.10;38.91;101264.72;5008799;28;45362;-74
2021/07/07 10:42:47;;;;;;;;;7.75;6.00;;;;;29.31;39.55;101269.53;5011282;28;46668;-74
2021/07/07 10:45:36;;;;;;;;;4.75;4.75;;;;;29.67;38.22;101271.78;5014004;28;45549;-74
2021/07/07 10:48:34;;;;;;;;;4.00;4.00;;;;;29.62;38.26;101269.59;5006160;28;45570;-75
2021/07/07 10:51:22;;;;;;;;;6.75;5.00;;;;;29.77;38.31;101270.53;4994243;28;45491;-74
2021/07/07 10:53:47;;;;;;;;;6.00;4.75;;;;;29.64;38.05;101271.09;4990410;28;45994;-74
2021/07/07 10:56:13;;;;;;;;;6.00;4.75;;;;;29.66;37.64;101273.66;4990421;28;45506;-74
2021/07/07 10:58:40;;;;;;;;;4.75;3.50;;;;;29.55;37.67;101274.06;4975131;28;45526;-74
2021/07/07 11:01:35;;;;;;;;;5.50;5.00;;;;;29.52;38.31;101267.06;4994058;28;49946;-72
2021/07/07 11:04:02;;;;;;;;;5.75;4.25;;;;;29.69;39.20;101267.00;4986214;28;46199;-74
2021/07/07 11:06:29;;;;;;;;;7.00;5.50;;;;;29.92;38.74;101270.63;4981593;28;45853;-72
2021/07/07 11:09:14;;;;;;;;;5.25;5.25;;;;;29.93;38.55;101276.88;4991737;28;46611;-74
2021/07/07 11:11:42;;;;;;;;;6.50;3.75;;;;;30.19;38.33;101269.25;4990406;28;45446;-74
2021/07/07 11:14:29;;;;;;;;;5.00;4.75;;;;;30.64;38.16;101272.91;4988881;28;46384;-75
2021/07/07 11:17:00;;;;;;;;;5.50;4.25;;;;;31.00;37.77;101272.25;4992105;28;45611;-76
2021/07/07 11:19:42;;;;;;;;;6.50;5.25;;;;;31.38;37.40;101267.59;4990278;28;45417;-75
2021/07/07 11:22:09;;;;;;;;;5.50;4.00;;;;;31.46;37.17;101269.34;4992916;28;45555;-76
2021/07/07 11:24:34;;;;;;;;;5.00;3.25;;;;;31.21;35.88;101268.78;4992048;28;45514;-75